Time;durP1;ratioP1;P1;durP2;ratioP2;P2;SDS_P1;SDS_P2;PMS_P1;PMS_P2;Temp;Humidity;BMP_temperature;BMP_pressure;BME280_temperature;BME280_humidity;BME280_pressure;Samples;Min_cycle;Max_cycle;Signal;HPM_P1;HPM_P2
2023/01/22 00:00:13;;;;;;;23.52;8.48;;;2.20;86.10;;;;;;5092929;28;20537;-73
2023/01/22 00:02:39;;;;;;;22.10;8.45;;;2.20;86.10;;;;;;5092919;28;20025;-73
2023/01/22 00:05:05;;;;;;;20.40;8.77;;;2.10;86.10;;;;;;5075165;28;20029;-74
2023/01/22 00:07:31;;;;;;;21.45;8.30;;;2.10;86.10;;;;;;5092856;28;20028;-73
2023/01/22 00:09:58;;;;;;;21.45;8.77;;;2.20;86.30;;;;;;5074979;28;20051;-73
2023/01/22 00:12:24;;;;;;;21.25;8.57;;;2.10;86.30;;;;;;5058766;28;20025;-74
2023/01/22 00:14:50;;;;;;;23.50;8.88;;;2.10;86.20;;;;;;5092713;28;20075;-73
2023/01/22 00:17:15;;;;;;;18.77;8.18;;;2.10;86.30;;;;;;5075275;28;20048;-73
2023/01/22 00:19:42;;;;;;;20.20;8.45;;;2.10;86.40;;;;;;5092740;28;20024;-74
2023/01/22 00:22:09;;;;;;;21.75;8.65;;;2.10;86.50;;;;;;5092700;28;20020;-74
2023/01/22 00:24:35;;;;;;;21.33;8.30;;;2.10;86.50;;;;;;5058987;28;20106;-74
2023/01/22 00:27:00;;;;;;;19.92;8.10;;;2.10;86.50;;;;;;5075114;28;20032;-73
2023/01/22 00:29:26;;;;;;;17.60;7.43;;;2.10;86.50;;;;;;5074841;28;20056;-74
2023/01/22 00:31:52;;;;;;;20.95;8.07;;;2.00;86.50;;;;;;5074959;28;20028;-74
2023/01/22 00:34:17;;;;;;;18.10;8.05;;;2.00;86.50;;;;;;5092539;28;20039;-74
2023/01/22 00:36:43;;;;;;;22.73;8.55;;;2.00;86.60;;;;;;5092569;28;20024;-74
2023/01/22 00:39:09;;;;;;;20.70;8.35;;;2.00;86.70;;;;;;5041678;28;20029;-73
2023/01/22 00:41:36;;;;;;;19.67;7.65;;;2.00;86.60;;;;;;5058616;28;20025;-74
2023/01/22 00:44:02;;;;;;;19.77;8.68;;;2.00;86.70;;;;;;5078487;28;20084;-74
2023/01/22 00:46:27;;;;;;;19.05;8.07;;;2.00;86.70;;;;;;5078309;28;20029;-74
2023/01/22 00:48:53;;;;;;;20.90;8.50;;;2.00;86.80;;;;;;5045036;28;20051;-74
2023/01/22 00:51:19;;;;;;;21.45;8.98;;;2.00;86.80;;;;;;5095965;28;20025;-74
2023/01/22 00:53:44;;;;;;;19.67;8.68;;;2.00;86.90;;;;;;5078229;28;20078;-73
2023/01/22 00:56:11;;;;;;;19.15;8.10;;;2.00;87.00;;;;;;5095803;28;20031;-73
2023/01/22 00:58:37;;;;;;;19.63;8.45;;;2.00;87.00;;;;;;5061417;28;20496;-73
2023/01/22 01:01:04;;;;;;;21.75;8.80;;;2.00;87.10;;;;;;5078154;28;20025;-74
2023/01/22 01:03:30;;;;;;;17.55;8.02;;;1.90;87.00;;;;;;5095745;28;20017;-73
2023/01/22 01:05:59;;;;;;;21.50;8.02;;;1.90;87.10;;;;;;5077952;28;20036;-74
2023/01/22 01:08:25;;;;;;;19.73;8.98;;;1.90;87.10;;;;;;5077852;28;20046;-74
2023/01/22 01:10:59;;;;;;;20.08;8.48;;;1.90;87.20;;;;;;5077822;28;20127;-74
2023/01/22 01:13:26;;;;;;;21.20;8.55;;;1.90;87.20;;;;;;5095533;28;20047;-74
2023/01/22 01:16:06;;;;;;;23.30;8.52;;;1.90;87.30;;;;;;5077456;28;20032;-74
2023/01/22 01:18:33;;;;;;;21.73;8.27;;;1.90;87.40;;;;;;5077754;28;20085;-73
2023/01/22 01:21:00;;;;;;;21.60;8.85;;;1.90;87.50;;;;;;5077768;28;20080;-73
2023/01/22 01:23:27;;;;;;;20.48;7.57;;;1.90;87.50;;;;;;5077650;28;20048;-74
2023/01/22 01:25:53;;;;;;;18.35;8.40;;;2.00;87.60;;;;;;5095314;28;20102;-74
2023/01/22 01:28:19;;;;;;;19.52;7.85;;;2.00;87.70;;;;;;5077534;28;20056;-74
2023/01/22 01:30:45;;;;;;;17.65;8.18;;;2.00;87.70;;;;;;5077739;28;20025;-74
2023/01/22 01:33:10;;;;;;;19.40;7.95;;;2.00;87.60;;;;;;5077525;28;20020;-74
2023/01/22 01:35:36;;;;;;;21.58;8.68;;;2.00;87.60;;;;;;5060695;28;20493;-73
2023/01/22 01:38:02;;;;;;;21.60;8.60;;;2.00;87.60;;;;;;5095049;28;20020;-73
2023/01/22 01:40:28;;;;;;;19.92;8.18;;;2.00;87.70;;;;;;5044124;28;20032;-73
2023/01/22 01:42:53;;;;;;;22.67;8.90;;;1.90;87.70;;;;;;5060713;28;20025;-74
2023/01/22 01:45:22;;;;;;;18.95;8.73;;;1.90;87.70;;;;;;5094891;28;20028;-73
2023/01/22 01:47:52;;;;;;;20.75;7.90;;;1.90;87.60;;;;;;5077231;28;20048;-73
2023/01/22 01:50:23;;;;;;;18.60;7.97;;;1.90;87.70;;;;;;5094808;28;20048;-74
2023/01/22 01:52:49;;;;;;;19.73;7.88;;;1.90;87.70;;;;;;5094521;28;20031;-74
2023/01/22 01:55:18;;;;;;;21.05;8.98;;;2.00;87.80;;;;;;5077090;28;20056;-73
2023/01/22 01:57:44;;;;;;;20.65;8.43;;;2.00;87.80;;;;;;5094643;28;20377;-74
2023/01/22 02:00:13;;;;;;;17.50;8.50;;;2.00;87.80;;;;;;5094622;28;20021;-73
2023/01/22 02:02:40;;;;;;;20.45;8.48;;;2.00;87.80;;;;;;5076802;28;20024;-73
2023/01/22 02:05:08;;;;;;;19.92;8.15;;;2.00;87.80;;;;;;5076788;28;20035;-74
2023/01/22 02:07:34;;;;;;;18.05;7.80;;;2.00;87.90;;;;;;5076804;28;20028;-73
2023/01/22 02:10:03;;;;;;;20.17;9.43;;;2.00;87.90;;;;;;5076689;28;20024;-73
2023/01/22 02:12:30;;;;;;;22.02;9.15;;;2.00;88.20;;;;;;5060532;28;20027;-73
2023/01/22 02:14:56;;;;;;;20.35;7.90;;;2.00;88.10;;;;;;5094272;28;20017;-73
2023/01/22 02:17:22;;;;;;;19.75;7.85;;;2.10;88.20;;;;;;5094273;28;20047;-74
2023/01/22 02:19:47;;;;;;;19.55;8.15;;;2.10;88.20;;;;;;5076713;28;20016;-74
2023/01/22 02:22:19;;;;;;;17.75;8.05;;;2.10;89.00;;;;;;5076571;28;20495;-74
2023/01/22 02:24:45;;;;;;;20.02;8.60;;;2.10;88.20;;;;;;5076518;28;20035;-74
2023/01/22 02:27:11;;;;;;;17.58;8.27;;;2.10;88.20;;;;;;5076399;28;20048;-74
2023/01/22 02:29:37;;;;;;;18.08;8.25;;;2.10;88.20;;;;;;5093838;28;20063;-74
2023/01/22 02:32:03;;;;;;;19.65;8.05;;;2.20;88.30;;;;;;5076283;28;20021;-74
2023/01/22 02:34:29;;;;;;;18.05;7.88;;;2.10;88.20;;;;;;5093902;28;20054;-74
2023/01/22 02:36:54;;;;;;;19.23;7.65;;;2.20;88.30;;;;;;5059516;28;20029;-74
2023/01/22 02:39:20;;;;;;;16.77;7.40;;;2.20;88.30;;;;;;5076074;28;20024;-74
2023/01/22 02:41:46;;;;;;;19.33;7.53;;;2.10;88.20;;;;;;5076420;28;20119;-74
2023/01/22 02:44:11;;;;;;;18.20;7.95;;;2.10;88.20;;;;;;5059524;28;20037;-74
2023/01/22 02:46:37;;;;;;;18.40;7.63;;;2.20;88.30;;;;;;5093759;28;20035;-74
2023/01/22 02:49:03;;;;;;;20.00;7.65;;;2.20;88.30;;;;;;5093727;28;20025;-74
2023/01/22 02:51:29;;;;;;;19.30;7.85;;;2.20;88.30;;;;;;5075934;28;20031;-74
2023/01/22 02:53:55;;;;;;;15.65;7.10;;;2.10;88.20;;;;;;5093667;28;20077;-74
2023/01/22 02:56:21;;;;;;;20.20;8.57;;;2.10;88.20;;;;;;5075851;28;20041;-74
2023/01/22 02:58:46;;;;;;;15.77;7.13;;;2.10;88.20;;;;;;5076124;28;20020;-74
2023/01/22 03:01:21;;;;;;;19.02;8.10;;;2.10;88.20;;;;;;5075944;28;20112;-74
2023/01/22 03:03:55;;;;;;;17.98;7.25;;;2.10;88.20;;;;;;5075516;28;20013;-74
2023/01/22 03:06:23;;;;;;;16.20;7.05;;;2.10;88.20;;;;;;5058856;28;20477;-74
2023/01/22 03:08:51;;;;;;;21.77;8.52;;;2.10;88.10;;;;;;5075595;28;20085;-74
2023/01/22 03:11:17;;;;;;;17.00;7.75;;;2.10;88.20;;;;;;5093403;28;20386;-74
2023/01/22 03:21:56;;;;;;;16.85;7.35;;;2.00;88.30;;;;;;5064533;28;20031;-74
2023/01/22 03:24:21;;;;;;;15.40;7.30;;;2.00;88.30;;;;;;5075612;28;20024;-74
2023/01/22 03:26:47;;;;;;;18.20;6.60;;;2.00;88.40;;;;;;5075647;28;20111;-73
2023/01/22 03:29:13;;;;;;;17.50;6.78;;;2.00;88.30;;;;;;5075382;28;20067;-74
2023/01/22 03:31:38;;;;;;;17.77;7.15;;;2.10;88.50;;;;;;5093375;28;20029;-74
2023/01/22 03:34:04;;;;;;;17.15;7.13;;;2.10;88.60;;;;;;5075419;28;20043;-74
2023/01/22 03:36:29;;;;;;;15.55;6.70;;;2.10;88.60;;;;;;5075403;28;20031;-74
2023/01/22 03:38:55;;;;;;;24.17;7.75;;;2.10;88.60;;;;;;5075400;28;20035;-74
2023/01/22 03:41:21;;;;;;;16.35;7.10;;;2.10;88.70;;;;;;5075471;28;20051;-74
2023/01/22 03:43:46;;;;;;;18.13;7.88;;;2.10;88.60;;;;;;5093111;28;20028;-74
2023/01/22 03:46:17;;;;;;;16.90;7.22;;;2.10;88.70;;;;;;5058756;28;20032;-74
2023/01/22 03:48:43;;;;;;;15.75;6.70;;;2.10;88.60;;;;;;5093052;28;20021;-74
2023/01/22 03:51:12;;;;;;;18.13;7.30;;;2.10;88.60;;;;;;5093169;28;20032;-74
2023/01/22 03:53:38;;;;;;;17.75;6.85;;;2.10;88.60;;;;;;5075206;28;20031;-74
2023/01/22 03:56:06;;;;;;;16.55;6.57;;;2.10;88.60;;;;;;5092895;28;20017;-74
2023/01/22 03:58:32;;;;;;;16.15;6.60;;;2.10;88.60;;;;;;5075092;28;20084;-74
2023/01/22 04:01:03;;;;;;;16.55;6.65;;;2.10;88.70;;;;;;5042238;28;20021;-74
2023/01/22 04:03:30;;;;;;;18.25;7.10;;;2.10;88.70;;;;;;5093069;28;20060;-74
2023/01/22 04:05:59;;;;;;;16.00;6.55;;;2.10;88.70;;;;;;5075176;28;20024;-74
2023/01/22 04:08:26;;;;;;;15.95;6.55;;;2.10;88.80;;;;;;5092795;28;20023;-74
2023/01/22 04:10:51;;;;;;;17.35;6.57;;;2.10;89.00;;;;;;5092825;28;20385;-74
2023/01/22 04:13:17;;;;;;;16.95;5.88;;;2.10;89.10;;;;;;5058367;28;20059;-74
2023/01/22 04:15:44;;;;;;;16.67;6.45;;;2.10;89.00;;;;;;5075839;28;20043;-74
2023/01/22 04:18:10;;;;;;;15.57;6.95;;;2.10;89.20;;;;;;5096613;28;20016;-74
2023/01/22 04:20:35;;;;;;;14.98;6.47;;;2.10;89.30;;;;;;5078871;28;20036;-74
2023/01/22 04:23:01;;;;;;;17.90;7.00;;;2.10;89.20;;;;;;5078891;28;20036;-74
2023/01/22 04:25:26;;;;;;;13.73;6.15;;;2.10;89.20;;;;;;5096447;28;20037;-74
2023/01/22 04:27:52;;;;;;;14.93;6.30;;;2.10;89.30;;;;;;5062075;28;20032;-74
2023/01/22 04:30:18;;;;;;;14.82;6.72;;;2.10;89.20;;;;;;5078718;28;20131;-74
2023/01/22 04:32:44;;;;;;;19.13;6.45;;;2.10;89.20;;;;;;5096302;28;20088;-74
2023/01/22 04:35:09;;;;;;;16.40;6.55;;;2.10;89.30;;;;;;5061869;28;20032;-74
2023/01/22 04:37:35;;;;;;;17.13;6.60;;;2.10;89.20;;;;;;5078647;28;20041;-74
2023/01/22 04:40:01;;;;;;;13.55;6.15;;;2.10;89.10;;;;;;5096311;28;20035;-74
2023/01/22 04:42:27;;;;;;;14.55;6.90;;;2.10;89.10;;;;;;5096191;28;20032;-74
2023/01/22 04:44:53;;;;;;;15.10;6.15;;;2.10;89.10;;;;;;5078571;28;20024;-74
2023/01/22 04:47:18;;;;;;;17.40;6.20;;;2.10;89.10;;;;;;5078293;28;20123;-74
2023/01/22 04:49:44;;;;;;;14.50;6.20;;;2.10;89.10;;;;;;5096037;28;20039;-74
2023/01/22 04:52:09;;;;;;;17.35;6.50;;;2.20;89.20;;;;;;5096121;28;20025;-74
2023/01/22 04:54:35;;;;;;;17.35;6.40;;;2.10;89.20;;;;;;5078130;28;20115;-74
2023/01/22 04:57:00;;;;;;;18.05;7.18;;;2.20;89.20;;;;;;5078249;28;20024;-74
2023/01/22 04:59:26;;;;;;;15.27;6.22;;;2.20;89.10;;;;;;5061591;28;20029;-74
2023/01/22 05:01:52;;;;;;;15.75;6.53;;;2.20;89.10;;;;;;5078073;28;20032;-74
2023/01/22 05:04:20;;;;;;;16.00;6.68;;;2.20;89.10;;;;;;5061405;28;20050;-74
2023/01/22 05:06:46;;;;;;;14.38;6.38;;;2.20;89.10;;;;;;5095697;28;20020;-74
2023/01/22 05:09:12;;;;;;;15.20;6.20;;;2.20;89.00;;;;;;5061344;28;20025;-74
2023/01/22 05:11:37;;;;;;;12.38;5.63;;;2.20;88.90;;;;;;5078060;28;20035;-74
2023/01/22 05:14:04;;;;;;;14.05;6.05;;;2.20;89.00;;;;;;5078076;28;20028;-74
2023/01/22 05:16:29;;;;;;;13.48;5.88;;;2.20;88.90;;;;;;5061188;28;20039;-74
2023/01/22 05:18:55;;;;;;;14.60;6.32;;;2.20;88.70;;;;;;5044572;28;20028;-74
2023/01/22 05:21:20;;;;;;;13.88;6.13;;;2.30;88.80;;;;;;5044610;28;20036;-74
2023/01/22 05:23:46;;;;;;;17.85;5.80;;;2.30;88.80;;;;;;5061019;28;20033;-74
2023/01/22 05:26:11;;;;;;;14.27;5.95;;;2.30;88.80;;;;;;5044442;28;20028;-74
2023/01/22 05:28:37;;;;;;;13.02;6.15;;;2.20;88.70;;;;;;5060049;28;20056;-74
2023/01/22 05:31:03;;;;;;;11.55;5.32;;;2.20;88.80;;;;;;5077505;28;20028;-74
2023/01/22 05:33:29;;;;;;;15.27;5.82;;;2.20;88.80;;;;;;5061024;28;20031;-74
2023/01/22 05:35:59;;;;;;;13.95;5.43;;;2.30;88.80;;;;;;5077415;28;20032;-74
2023/01/22 05:38:26;;;;;;;11.45;5.18;;;2.30;88.70;;;;;;5077156;28;20024;-74
2023/01/22 05:40:52;;;;;;;12.95;5.55;;;2.20;88.70;;;;;;5077353;28;20020;-74
2023/01/22 05:43:18;;;;;;;12.13;5.38;;;2.30;88.80;;;;;;5077416;28;20070;-74
2023/01/22 05:45:43;;;;;;;14.18;6.07;;;2.30;88.80;;;;;;5077237;28;20037;-74
2023/01/22 05:48:09;;;;;;;16.42;5.80;;;2.30;88.80;;;;;;5077277;28;20048;-74
2023/01/22 05:50:35;;;;;;;12.77;5.47;;;2.30;88.80;;;;;;5060533;28;20024;-74
2023/01/22 05:53:01;;;;;;;10.65;5.15;;;2.30;88.60;;;;;;5077210;28;20043;-74
2023/01/22 05:55:27;;;;;;;10.48;4.97;;;2.30;88.60;;;;;;5060417;28;20028;-74
2023/01/22 05:57:53;;;;;;;13.00;5.53;;;2.30;88.50;;;;;;5077117;28;20078;-74
2023/01/22 06:00:18;;;;;;;10.57;4.70;;;2.30;88.50;;;;;;5076960;28;20036;-74
2023/01/22 06:02:44;;;;;;;13.98;5.95;;;2.30;88.50;;;;;;5076839;28;20054;-74
2023/01/22 06:05:10;;;;;;;15.23;5.75;;;2.40;88.40;;;;;;5094585;28;20029;-74
2023/01/22 06:07:36;;;;;;;14.82;5.97;;;2.30;88.30;;;;;;5060108;28;20020;-74
2023/01/22 06:10:01;;;;;;;12.20;5.25;;;2.30;88.30;;;;;;5060127;28;20055;-74
2023/01/22 06:12:27;;;;;;;13.88;5.53;;;2.30;88.50;;;;;;5094434;28;20032;-74
2023/01/22 06:14:53;;;;;;;10.35;4.90;;;2.40;88.60;;;;;;5076555;28;20043;-74
2023/01/22 06:17:19;;;;;;;11.95;5.53;;;2.30;88.40;;;;;;5094315;28;20084;-74
2023/01/22 06:19:44;;;;;;;16.13;5.57;;;2.30;88.50;;;;;;5060121;28;20041;-74
2023/01/22 06:22:10;;;;;;;13.73;5.60;;;2.40;88.70;;;;;;5059806;28;20029;-74
2023/01/22 06:24:36;;;;;;;12.40;5.72;;;2.30;88.60;;;;;;5076607;28;20032;-74
2023/01/22 06:27:03;;;;;;;15.07;6.22;;;2.40;88.60;;;;;;5059940;28;20028;-74
2023/01/22 06:29:28;;;;;;;13.73;5.90;;;2.40;88.60;;;;;;5059553;28;20055;-74
2023/01/22 06:31:55;;;;;;;14.80;5.82;;;2.40;88.60;;;;;;5059840;28;20044;-74
2023/01/22 06:34:21;;;;;;;14.15;5.85;;;2.40;88.60;;;;;;5076459;28;20040;-74
2023/01/22 06:36:47;;;;;;;12.63;5.40;;;2.40;89.50;;;;;;5093879;28;20024;-74
2023/01/22 06:39:12;;;;;;;13.90;6.15;;;2.40;88.70;;;;;;5058965;28;20470;-74
2023/01/22 06:41:38;;;;;;;11.85;5.68;;;2.30;88.80;;;;;;5076128;28;20025;-74
2023/01/22 06:44:04;;;;;;;13.27;5.55;;;2.40;88.80;;;;;;5076076;28;20127;-74
2023/01/22 06:46:29;;;;;;;13.43;6.15;;;2.40;88.80;;;;;;5076256;28;20028;-74
2023/01/22 06:48:57;;;;;;;15.02;6.50;;;2.40;88.80;;;;;;5076288;28;20028;-74
2023/01/22 06:51:23;;;;;;;14.27;6.10;;;2.40;88.80;;;;;;5076398;28;20078;-74
2023/01/22 06:53:49;;;;;;;18.83;6.28;;;2.40;88.90;;;;;;5059499;28;20362;-74
2023/01/22 06:56:15;;;;;;;16.52;6.13;;;2.40;88.90;;;;;;5059273;28;20032;-74
2023/01/22 06:58:40;;;;;;;15.00;6.35;;;2.40;89.10;;;;;;5059280;28;20032;-74
2023/01/22 07:01:06;;;;;;;15.15;6.95;;;2.40;89.10;;;;;;5059420;28;20024;-74
2023/01/22 07:03:32;;;;;;;15.07;5.80;;;2.40;89.10;;;;;;5075962;28;20029;-74
2023/01/22 07:05:59;;;;;;;16.85;7.10;;;2.40;89.50;;;;;;5093545;28;20067;-74
2023/01/22 07:08:26;;;;;;;13.40;6.65;;;2.40;89.10;;;;;;5075683;28;20058;-74
2023/01/22 07:10:52;;;;;;;16.20;6.47;;;2.40;89.10;;;;;;5075934;28;20028;-74
2023/01/22 07:13:18;;;;;;;15.35;6.30;;;2.40;89.10;;;;;;5075786;28;20032;-74
2023/01/22 07:15:43;;;;;;;16.48;6.22;;;2.40;89.20;;;;;;5093332;28;20409;-74
2023/01/22 07:18:09;;;;;;;12.70;6.00;;;2.40;89.20;;;;;;5075818;28;20029;-74
2023/01/22 07:20:36;;;;;;;13.75;6.05;;;2.40;89.30;;;;;;5075651;28;20020;-74
2023/01/22 07:23:02;;;;;;;14.57;6.70;;;2.40;89.30;;;;;;5058912;28;20024;-74
2023/01/22 07:25:27;;;;;;;15.23;6.55;;;2.50;89.40;;;;;;5093288;28;20031;-74
2023/01/22 07:28:01;;;;;;;15.18;6.43;;;2.40;89.40;;;;;;5075474;28;20028;-74
2023/01/22 07:30:27;;;;;;;16.48;6.38;;;2.40;89.40;;;;;;5075547;28;20045;-74
2023/01/22 07:32:53;;;;;;;13.35;5.88;;;2.40;89.40;;;;;;5058918;28;20025;-74
2023/01/22 07:35:19;;;;;;;13.00;5.43;;;2.40;89.40;;;;;;5075457;28;20033;-74
2023/01/22 07:37:52;;;;;;;11.68;5.72;;;2.40;89.40;;;;;;5075363;28;20053;-74
2023/01/22 07:40:19;;;;;;;13.13;6.57;;;2.40;89.50;;;;;;5075398;28;20036;-74
2023/01/22 07:42:44;;;;;;;16.67;6.75;;;2.40;89.50;;;;;;5058772;28;20029;-74
2023/01/22 07:45:10;;;;;;;14.00;5.97;;;2.40;89.50;;;;;;5075497;28;20032;-74
2023/01/22 07:47:35;;;;;;;15.52;6.53;;;2.40;90.10;;;;;;5058723;28;20063;-74
2023/01/22 07:50:02;;;;;;;12.77;6.03;;;2.40;89.50;;;;;;5058666;28;20054;-74
2023/01/22 07:52:27;;;;;;;14.63;6.85;;;2.50;89.50;;;;;;5079074;28;20115;-74
2023/01/22 07:54:53;;;;;;;14.35;5.90;;;2.50;89.40;;;;;;5062711;28;20033;-74
2023/01/22 07:57:18;;;;;;;15.10;6.55;;;2.40;89.40;;;;;;5062543;28;20032;-74
2023/01/22 07:59:44;;;;;;;11.55;5.78;;;2.50;89.50;;;;;;5079378;28;20027;-74
2023/01/22 08:02:12;;;;;;;16.48;6.72;;;2.50;89.50;;;;;;5079377;28;20056;-74
2023/01/22 08:04:38;;;;;;;15.27;6.07;;;2.50;89.40;;;;;;5079153;28;20055;-74
2023/01/22 08:07:03;;;;;;;11.60;6.13;;;2.50;89.50;;;;;;5062627;28;20036;-74
2023/01/22 08:09:29;;;;;;;14.43;6.28;;;2.50;89.40;;;;;;5079104;28;20024;-74
2023/01/22 08:11:55;;;;;;;16.30;6.20;;;2.50;89.40;;;;;;5079138;28;20064;-75
2023/01/22 08:14:21;;;;;;;12.85;6.05;;;2.50;89.30;;;;;;5079046;28;20048;-74
2023/01/22 08:16:46;;;;;;;13.75;6.00;;;2.60;89.40;;;;;;5078884;28;20032;-75
2023/01/22 08:19:13;;;;;;;14.40;6.13;;;2.50;89.30;;;;;;5062421;28;20029;-74
2023/01/22 08:21:38;;;;;;;16.00;5.97;;;2.60;89.40;;;;;;5078782;28;20020;-74
2023/01/22 08:24:05;;;;;;;10.60;5.00;;;2.60;89.40;;;;;;5096505;28;20031;-74
2023/01/22 08:26:30;;;;;;;12.70;5.47;;;2.60;89.40;;;;;;5062125;28;20044;-74
2023/01/22 08:28:56;;;;;;;12.13;5.40;;;2.60;89.50;;;;;;5061798;28;20063;-75
2023/01/22 08:31:21;;;;;;;10.43;4.72;;;2.60;89.50;;;;;;5078751;28;20025;-74
2023/01/22 08:33:47;;;;;;;10.40;5.03;;;2.60;89.40;;;;;;5078750;28;20518;-74
2023/01/22 08:36:12;;;;;;;11.20;5.30;;;2.60;89.40;;;;;;5096216;28;20096;-75
2023/01/22 08:38:38;;;;;;;10.32;5.22;;;2.60;89.30;;;;;;5061796;28;20017;-74
2023/01/22 08:41:04;;;;;;;13.05;5.47;;;2.60;89.40;;;;;;5061859;28;20028;-75
2023/01/22 08:43:29;;;;;;;11.25;5.07;;;2.60;90.10;;;;;;5061791;28;20027;-75
2023/01/22 08:45:55;;;;;;;11.38;5.03;;;2.60;89.50;;;;;;5096129;28;20122;-74
2023/01/22 08:48:20;;;;;;;11.77;4.93;;;2.60;89.50;;;;;;5078433;28;20040;-75
2023/01/22 08:50:46;;;;;;;12.07;4.88;;;2.60;89.40;;;;;;5078434;28;20029;-75
2023/01/22 08:53:12;;;;;;;10.75;4.88;;;2.60;89.30;;;;;;5078262;28;20024;-75
2023/01/22 08:55:37;;;;;;;9.65;4.55;;;2.60;89.40;;;;;;5095854;28;20024;-75
2023/01/22 08:58:03;;;;;;;12.18;5.55;;;2.70;89.40;;;;;;5061463;28;20025;-75
2023/01/22 09:00:29;;;;;;;11.63;5.25;;;2.70;89.60;;;;;;5078110;28;20024;-74
2023/01/22 09:02:59;;;;;;;9.98;5.00;;;2.70;89.40;;;;;;5060493;28;20021;-74
2023/01/22 09:05:25;;;;;;;9.90;4.85;;;2.60;89.40;;;;;;5095763;28;20074;-74
2023/01/22 09:07:51;;;;;;;10.57;4.95;;;2.70;89.60;;;;;;5078133;28;20031;-74
2023/01/22 09:10:17;;;;;;;10.40;4.97;;;2.60;89.50;;;;;;5077920;28;20021;-73
2023/01/22 09:12:42;;;;;;;10.88;4.68;;;2.70;89.60;;;;;;5077805;28;20074;-74
2023/01/22 09:15:09;;;;;;;11.07;4.82;;;2.60;89.60;;;;;;5095506;28;20039;-74
2023/01/22 09:17:35;;;;;;;10.85;4.93;;;2.70;89.70;;;;;;5078035;28;20023;-75
2023/01/22 09:20:00;;;;;;;13.32;5.40;;;2.60;89.60;;;;;;5077782;28;20025;-75
2023/01/22 09:22:26;;;;;;;11.00;5.13;;;2.70;89.70;;;;;;5077919;28;20025;-75
2023/01/22 09:24:53;;;;;;;11.13;5.03;;;2.70;89.70;;;;;;5095401;28;20082;-74
2023/01/22 09:27:19;;;;;;;14.25;5.45;;;2.70;90.20;;;;;;5095347;28;20042;-75
2023/01/22 09:29:44;;;;;;;10.30;5.03;;;2.80;89.70;;;;;;5042733;28;20085;-75
2023/01/22 09:32:10;;;;;;;10.25;5.05;;;2.80;89.50;;;;;;5054264;28;20033;-75
2023/01/22 09:34:36;;;;;;;10.73;4.95;;;2.80;89.60;;;;;;5054034;28;20041;-75
2023/01/22 09:37:04;;;;;;;9.77;4.75;;;2.80;89.50;;;;;;5055083;28;20041;-75
2023/01/22 09:39:29;;;;;;;11.10;5.35;;;2.80;89.50;;;;;;5054116;28;20018;-75
2023/01/22 09:41:59;;;;;;;10.40;5.38;;;2.80;89.50;;;;;;5054992;28;20055;-75
2023/01/22 09:44:34;;;;;;;9.88;4.78;;;2.80;90.10;;;;;;5055038;28;20014;-75
2023/01/22 09:47:40;;;;;;;8.98;4.80;;;2.80;89.40;;;;;;5054817;28;20018;-75
2023/01/22 09:50:29;;;;;;;10.20;5.00;;;2.90;89.50;;;;;;5043572;28;20030;-75
2023/01/22 09:52:58;;;;;;;10.35;5.55;;;2.80;89.40;;;;;;5054832;28;20041;-74
2023/01/22 09:55:29;;;;;;;11.13;5.20;;;2.80;89.40;;;;;;5054673;28;20022;-75
2023/01/22 09:57:59;;;;;;;12.83;5.27;;;2.90;89.50;;;;;;5054724;28;20044;-75
2023/01/22 10:00:38;;;;;;;9.85;5.22;;;2.80;89.40;;;;;;5054718;28;20047;-75
2023/01/22 10:03:26;;;;;;;11.32;5.10;;;2.80;89.50;;;;;;5054548;28;20029;-74
2023/01/22 10:05:58;;;;;;;11.23;5.38;;;2.80;89.40;;;;;;5054554;28;20089;-75
2023/01/22 10:08:32;;;;;;;;;;;2.80;89.40;;;;;;5053806;28;20034;-75
2023/01/22 10:10:59;;;;;;;8.25;4.28;;;2.80;89.40;;;;;;5053495;28;19927;-75
2023/01/22 10:13:34;;;;;;;10.88;4.88;;;2.80;89.50;;;;;;5054168;28;20029;-75
2023/01/22 10:16:00;;;;;;;9.65;5.10;;;2.80;89.60;;;;;;5054292;28;20029;-75
2023/01/22 10:18:49;;;;;;;10.65;5.70;;;2.80;89.70;;;;;;5053226;28;20093;-75
2023/01/22 10:21:25;;;;;;;11.05;5.65;;;2.80;89.70;;;;;;5051268;28;20042;-75
2023/01/22 10:23:54;;;;;;;10.93;5.05;;;2.90;89.80;;;;;;5054244;28;20025;-75
2023/01/22 10:26:40;;;;;;;11.60;5.63;;;2.80;89.60;;;;;;5054117;28;20025;-75
2023/01/22 10:29:10;;;;;;;11.43;5.38;;;2.90;89.70;;;;;;5068384;28;20048;-75
2023/01/22 10:31:44;;;;;;;12.98;5.25;;;2.90;89.80;;;;;;5076516;28;20049;-74
2023/01/22 10:34:14;;;;;;;14.30;5.10;;;2.90;89.80;;;;;;5094078;28;20020;-75
2023/01/22 10:36:40;;;;;;;8.68;4.53;;;2.90;89.80;;;;;;5094004;28;20048;-74
2023/01/22 10:39:13;;;;;;;8.65;5.00;;;2.90;89.80;;;;;;5076305;28;20032;-75
2023/01/22 10:41:44;;;;;;;10.98;5.40;;;2.90;89.70;;;;;;5093841;28;20017;-75
2023/01/22 10:44:17;;;;;;;9.77;4.95;;;2.90;89.60;;;;;;5076485;28;20501;-75
2023/01/22 10:46:45;;;;;;;9.57;4.35;;;3.00;89.70;;;;;;5076020;28;20024;-75
2023/01/22 10:49:16;;;;;;;10.10;5.03;;;3.00;89.60;;;;;;5076461;28;20037;-74
2023/01/22 10:51:47;;;;;;;8.75;4.53;;;3.00;89.60;;;;;;5093744;28;20025;-75
2023/01/22 10:54:35;;;;;;;12.05;5.78;;;3.00;90.20;;;;;;5093668;28;20024;-75
2023/01/22 10:57:05;;;;;;;11.88;5.32;;;3.10;89.50;;;;;;5093561;28;20381;-75
2023/01/22 10:59:30;;;;;;;9.10;4.55;;;3.10;89.40;;;;;;5093581;28;20028;-74
2023/01/22 11:02:01;;;;;;;11.13;5.20;;;3.10;89.40;;;;;;5075835;28;20028;-75
2023/01/22 11:04:30;;;;;;;9.25;5.07;;;3.10;89.30;;;;;;5093522;28;20044;-75
2023/01/22 11:07:03;;;;;;;11.07;4.85;;;3.10;89.40;;;;;;5093470;28;20042;-74
2023/01/22 11:09:43;;;;;;;11.13;4.85;;;3.10;89.50;;;;;;5093388;28;20023;-75
2023/01/22 11:12:25;;;;;;;12.95;4.82;;;3.10;89.50;;;;;;5075744;28;20025;-75
2023/01/22 11:15:18;;;;;;;10.05;4.80;;;3.20;89.30;;;;;;5075676;28;20024;-75
2023/01/22 11:17:49;;;;;;;9.02;4.50;;;3.20;89.30;;;;;;5075113;28;20032;-75
2023/01/22 11:20:29;;;;;;;8.77;4.30;;;3.20;89.40;;;;;;5093393;28;20057;-74
2023/01/22 11:23:21;;;;;;;9.43;4.50;;;3.20;89.40;;;;;;5075608;28;20017;-75
2023/01/22 11:26:20;;;;;;;9.45;4.63;;;3.20;89.30;;;;;;5075033;28;20031;-75
2023/01/22 11:28:54;;;;;;;8.45;4.47;;;3.20;89.30;;;;;;5093063;28;20048;-75
2023/01/22 11:31:34;;;;;;;8.48;4.32;;;3.20;89.30;;;;;;5075395;28;20048;-75
2023/01/22 11:34:15;;;;;;;7.85;4.13;;;3.30;89.40;;;;;;5093391;28;20032;-75
2023/01/22 11:36:52;;;;;;;8.07;4.50;;;3.30;89.30;;;;;;5075466;28;20029;-75
2023/01/22 11:39:36;;;;;;;10.15;4.88;;;3.30;89.30;;;;;;5075422;28;20021;-75
2023/01/22 11:42:13;;;;;;;10.05;4.80;;;3.30;89.30;;;;;;5075383;28;20025;-75
2023/01/22 11:45:16;;;;;;;9.20;4.38;;;3.30;89.30;;;;;;5093159;28;20021;-75
2023/01/22 11:47:48;;;;;;;12.77;5.45;;;3.20;89.30;;;;;;5093076;28;20059;-75
2023/01/22 11:50:29;;;;;;;10.82;4.22;;;3.30;89.20;;;;;;5093244;28;20025;-75
2023/01/22 11:53:14;;;;;;;9.35;4.25;;;3.30;89.30;;;;;;5075404;28;20024;-75
2023/01/22 11:55:46;;;;;;;9.90;4.75;;;3.30;89.30;;;;;;5075213;28;20089;-75
2023/01/22 11:58:27;;;;;;;10.23;4.97;;;3.20;89.40;;;;;;5075256;28;20028;-74
2023/01/22 12:01:16;;;;;;;10.15;4.43;;;3.20;89.40;;;;;;5093070;28;20027;-75
2023/01/22 12:04:03;;;;;;;9.00;4.45;;;3.30;89.40;;;;;;5092944;28;20020;-75
2023/01/22 12:06:34;;;;;;;11.23;4.68;;;3.30;89.40;;;;;;5075160;28;20029;-75
2023/01/22 12:09:21;;;;;;;9.05;4.25;;;3.30;89.40;;;;;;5075117;28;20056;-74
2023/01/22 12:11:54;;;;;;;9.80;4.82;;;3.30;89.50;;;;;;5092812;28;20078;-75
2023/01/22 12:14:27;;;;;;;8.85;4.65;;;3.30;89.50;;;;;;5074988;28;20024;-74
2023/01/22 12:17:20;;;;;;;11.10;4.65;;;3.30;89.70;;;;;;5092805;28;20489;-75
2023/01/22 12:19:57;;;;;;;9.73;4.90;;;3.30;89.70;;;;;;5075038;28;20093;-75
2023/01/22 12:22:40;;;;;;;8.77;4.47;;;3.40;89.90;;;;;;5092728;28;20080;-75
2023/01/22 12:25:48;;;;;;;11.20;5.35;;;3.40;89.70;;;;;;5092765;28;20028;-75
2023/01/22 12:28:39;;;;;;;8.20;4.60;;;3.40;89.70;;;;;;5092484;28;20051;-75
2023/01/22 12:31:14;;;;;;;12.13;5.22;;;3.40;89.60;;;;;;5075133;28;20043;-75
2023/01/22 12:33:41;;;;;;;10.95;5.00;;;3.40;89.60;;;;;;5092688;28;20025;-75
2023/01/22 12:36:12;;;;;;;10.45;5.43;;;3.40;89.50;;;;;;5092660;28;20027;-74
2023/01/22 12:38:49;;;;;;;13.48;5.43;;;3.40;89.50;;;;;;5096275;28;20028;-75
2023/01/22 12:41:46;;;;;;;9.95;4.60;;;3.40;89.60;;;;;;5096134;28;20026;-75
2023/01/22 12:44:49;;;;;;;12.02;5.15;;;3.30;89.60;;;;;;5078483;28;20047;-75
2023/01/22 12:47:22;;;;;;;9.02;4.35;;;3.40;89.70;;;;;;5078449;28;20055;-75
2023/01/22 12:49:51;;;;;;;11.15;4.80;;;3.40;89.60;;;;;;5078356;28;20032;-75
2023/01/22 12:52:43;;;;;;;11.25;5.28;;;3.40;89.60;;;;;;5096007;28;20021;-75
2023/01/22 12:55:36;;;;;;;12.10;5.15;;;3.40;89.70;;;;;;5074361;28;20045;-75
2023/01/22 12:58:03;;;;;;;11.80;5.28;;;3.40;89.50;;;;;;5095893;28;20027;-75
2023/01/22 13:00:30;;;;;;;15.05;5.00;;;3.40;89.70;;;;;;5095854;28;20025;-75
2023/01/22 13:02:56;;;;;;;10.73;4.78;;;3.40;89.80;;;;;;5095795;28;20017;-75
2023/01/22 13:05:25;;;;;;;9.98;4.60;;;3.40;89.90;;;;;;5077974;28;20071;-75